sensor_id;sensor_type;location;lat;lon;timestamp;pressure;altitude;pressure_sealevel;temperature;humidity
74542;BME280;63015;45.378;20.360;2024-01-11T00:00:21;102192.38;;;-5.14;78.73
74542;BME280;63015;45.378;20.360;2024-01-11T00:02:22;102191.78;;;-5.11;78.75
74542;BME280;63015;45.378;20.360;2024-01-11T00:04:22;102190.13;;;-5.10;78.56
74542;BME280;63015;45.378;20.360;2024-01-11T00:06:23;102188.47;;;-5.10;78.61
74542;BME280;63015;45.378;20.360;2024-01-11T00:08:23;102180.28;;;-5.16;78.73
74542;BME280;63015;45.378;20.360;2024-01-11T00:10:24;102188.06;;;-5.15;78.67
74542;BME280;63015;45.378;20.360;2024-01-11T00:12:24;102189.72;;;-5.15;78.61
74542;BME280;63015;45.378;20.360;2024-01-11T00:14:25;102193.28;;;-5.13;78.81
74542;BME280;63015;45.378;20.360;2024-01-11T00:16:25;102191.28;;;-5.07;78.63
74542;BME280;63015;45.378;20.360;2024-01-11T00:18:26;102186.91;;;-4.99;78.29
74542;BME280;63015;45.378;20.360;2024-01-11T00:20:27;102188.06;;;-4.96;78.62
74542;BME280;63015;45.378;20.360;2024-01-11T00:22:27;102185.53;;;-4.96;78.20
74542;BME280;63015;45.378;20.360;2024-01-11T00:24:28;102189.25;;;-4.92;78.13
74542;BME280;63015;45.378;20.360;2024-01-11T00:26:28;102187.59;;;-4.91;78.26
74542;BME280;63015;45.378;20.360;2024-01-11T00:28:28;102184.28;;;-4.90;78.20
74542;BME280;63015;45.378;20.360;2024-01-11T00:30:29;102181.88;;;-4.89;78.21
74542;BME280;63015;45.378;20.360;2024-01-11T00:32:29;102182.16;;;-4.86;77.95
74542;BME280;63015;45.378;20.360;2024-01-11T00:34:30;102178.84;;;-4.85;77.94
74542;BME280;63015;45.378;20.360;2024-01-11T00:36:30;102184.84;;;-4.84;77.94
74542;BME280;63015;45.378;20.360;2024-01-11T00:38:33;102169.78;;;-4.91;78.08
74542;BME280;63015;45.378;20.360;2024-01-11T00:40:33;102180.38;;;-4.87;78.30
74542;BME280;63015;45.378;20.360;2024-01-11T00:42:34;102180.22;;;-4.88;78.03
74542;BME280;63015;45.378;20.360;2024-01-11T00:44:35;102179.75;;;-4.84;78.00
74542;BME280;63015;45.378;20.360;2024-01-11T00:46:35;102185.59;;;-4.85;78.01
74542;BME280;63015;45.378;20.360;2024-01-11T00:48:36;102178.28;;;-4.91;78.03
74542;BME280;63015;45.378;20.360;2024-01-11T00:50:37;102182.63;;;-4.90;78.06
74542;BME280;63015;45.378;20.360;2024-01-11T00:52:38;102174.25;;;-4.89;78.20
74542;BME280;63015;45.378;20.360;2024-01-11T00:54:38;102179.41;;;-4.98;78.61
74542;BME280;63015;45.378;20.360;2024-01-11T00:56:39;102177.28;;;-4.93;78.39
74542;BME280;63015;45.378;20.360;2024-01-11T00:58:40;102175.44;;;-4.85;78.16
74542;BME280;63015;45.378;20.360;2024-01-11T01:00:40;102176.59;;;-4.82;78.33
74542;BME280;63015;45.378;20.360;2024-01-11T01:02:41;102172.81;;;-4.76;78.03
74542;BME280;63015;45.378;20.360;2024-01-11T01:04:41;102164.56;;;-4.74;77.93
74542;BME280;63015;45.378;20.360;2024-01-11T01:06:42;102164.69;;;-4.72;78.09
74542;BME280;63015;45.378;20.360;2024-01-11T01:08:42;102159.75;;;-4.71;77.90
74542;BME280;63015;45.378;20.360;2024-01-11T01:10:43;102160.78;;;-4.69;77.87
74542;BME280;63015;45.378;20.360;2024-01-11T01:12:44;102157.63;;;-4.66;77.79
74542;BME280;63015;45.378;20.360;2024-01-11T01:14:44;102155.44;;;-4.62;78.06
74542;BME280;63015;45.378;20.360;2024-01-11T01:16:44;102151.41;;;-4.59;77.99
74542;BME280;63015;45.378;20.360;2024-01-11T01:18:45;102153.03;;;-4.60;77.80
74542;BME280;63015;45.378;20.360;2024-01-11T01:20:45;102148.72;;;-4.61;77.46
74542;BME280;63015;45.378;20.360;2024-01-11T01:22:46;102139.56;;;-4.59;77.68
74542;BME280;63015;45.378;20.360;2024-01-11T01:24:46;102149.75;;;-4.59;77.63
74542;BME280;63015;45.378;20.360;2024-01-11T01:26:47;102158.13;;;-4.60;77.58
74542;BME280;63015;45.378;20.360;2024-01-11T01:28:47;102156.63;;;-4.58;77.77
74542;BME280;63015;45.378;20.360;2024-01-11T01:30:48;102152.72;;;-4.54;77.64
74542;BME280;63015;45.378;20.360;2024-01-11T01:32:49;102157.03;;;-4.53;77.71
74542;BME280;63015;45.378;20.360;2024-01-11T01:34:49;102156.25;;;-4.52;77.60
74542;BME280;63015;45.378;20.360;2024-01-11T01:36:50;102158.00;;;-4.62;77.88
74542;BME280;63015;45.378;20.360;2024-01-11T01:38:50;102152.28;;;-4.59;77.80
74542;BME280;63015;45.378;20.360;2024-01-11T01:40:50;102143.47;;;-4.63;77.84
74542;BME280;63015;45.378;20.360;2024-01-11T01:42:58;102141.84;;;-4.62;78.05
74542;BME280;63015;45.378;20.360;2024-01-11T01:44:58;102141.97;;;-4.60;77.97
74542;BME280;63015;45.378;20.360;2024-01-11T01:46:59;102138.41;;;-4.63;77.90
74542;BME280;63015;45.378;20.360;2024-01-11T01:49:00;102141.84;;;-4.62;77.87
74542;BME280;63015;45.378;20.360;2024-01-11T01:51:02;102140.31;;;-4.60;77.85
74542;BME280;63015;45.378;20.360;2024-01-11T01:53:02;102139.31;;;-4.62;77.84
74542;BME280;63015;45.378;20.360;2024-01-11T01:55:04;102141.84;;;-4.62;77.63
74542;BME280;63015;45.378;20.360;2024-01-11T01:57:07;102138.13;;;-4.66;77.84
74542;BME280;63015;45.378;20.360;2024-01-11T01:59:09;102142.09;;;-4.59;77.94
74542;BME280;63015;45.378;20.360;2024-01-11T02:01:11;102140.59;;;-4.57;77.58
74542;BME280;63015;45.378;20.360;2024-01-11T02:03:14;102135.72;;;-4.64;77.55
74542;BME280;63015;45.378;20.360;2024-01-11T02:05:16;102126.66;;;-4.71;77.37
74542;BME280;63015;45.378;20.360;2024-01-11T02:07:18;102135.81;;;-4.73;77.56
74542;BME280;63015;45.378;20.360;2024-01-11T02:09:19;102127.28;;;-4.73;77.63
74542;BME280;63015;45.378;20.360;2024-01-11T02:11:20;102137.22;;;-4.76;77.77
74542;BME280;63015;45.378;20.360;2024-01-11T02:13:21;102125.50;;;-4.74;77.85
74542;BME280;63015;45.378;20.360;2024-01-11T02:15:22;102125.78;;;-4.71;77.91
74542;BME280;63015;45.378;20.360;2024-01-11T02:17:22;102126.03;;;-4.68;77.94
74542;BME280;63015;45.378;20.360;2024-01-11T02:19:23;102118.41;;;-4.68;77.90
74542;BME280;63015;45.378;20.360;2024-01-11T02:21:24;102118.41;;;-4.68;77.78
74542;BME280;63015;45.378;20.360;2024-01-11T02:23:26;102123.09;;;-4.73;77.94
74542;BME280;63015;45.378;20.360;2024-01-11T02:25:27;102117.25;;;-4.72;77.93
74542;BME280;63015;45.378;20.360;2024-01-11T02:27:27;102114.44;;;-4.75;77.82
74542;BME280;63015;45.378;20.360;2024-01-11T02:29:29;102118.28;;;-4.70;77.70
74542;BME280;63015;45.378;20.360;2024-01-11T02:31:30;102118.28;;;-4.70;77.75
74542;BME280;63015;45.378;20.360;2024-01-11T02:33:30;102115.63;;;-4.71;77.79
74542;BME280;63015;45.378;20.360;2024-01-11T02:35:31;102114.81;;;-4.70;77.79
74542;BME280;63015;45.378;20.360;2024-01-11T02:37:32;102112.16;;;-4.72;77.72
74542;BME280;63015;45.378;20.360;2024-01-11T02:39:33;102114.69;;;-4.72;77.84
74542;BME280;63015;45.378;20.360;2024-01-11T02:41:35;102101.84;;;-4.73;77.74
74542;BME280;63015;45.378;20.360;2024-01-11T02:43:36;102100.56;;;-4.79;77.63
74542;BME280;63015;45.378;20.360;2024-01-11T02:45:37;102102.22;;;-4.79;77.72
74542;BME280;63015;45.378;20.360;2024-01-11T02:47:38;102101.44;;;-4.78;77.71
74542;BME280;63015;45.378;20.360;2024-01-11T02:49:39;102104.13;;;-4.76;77.69
74542;BME280;63015;45.378;20.360;2024-01-11T02:51:39;102097.97;;;-4.89;77.57
74542;BME280;63015;45.378;20.360;2024-01-11T02:53:40;102090.81;;;-4.93;77.77
74542;BME280;63015;45.378;20.360;2024-01-11T02:55:40;102098.22;;;-4.86;77.74
74542;BME280;63015;45.378;20.360;2024-01-11T02:57:41;102098.72;;;-4.90;78.01
74542;BME280;63015;45.378;20.360;2024-01-11T02:59:43;102096.91;;;-4.91;78.09
74542;BME280;63015;45.378;20.360;2024-01-11T03:01:43;102101.25;;;-4.90;78.17
74542;BME280;63015;45.378;20.360;2024-01-11T03:03:44;102093.63;;;-4.90;78.28
74542;BME280;63015;45.378;20.360;2024-01-11T03:05:44;102092.25;;;-4.86;77.84
74542;BME280;63015;45.378;20.360;2024-01-11T03:07:45;102089.22;;;-5.01;77.98
74542;BME280;63015;45.378;20.360;2024-01-11T03:09:45;102085.88;;;-5.10;78.00
74542;BME280;63015;45.378;20.360;2024-01-11T03:11:46;102088.41;;;-5.10;77.94
74542;BME280;63015;45.378;20.360;2024-01-11T03:13:46;102085.50;;;-5.15;78.35
74542;BME280;63015;45.378;20.360;2024-01-11T03:15:47;102082.25;;;-5.23;78.54
74542;BME280;63015;45.378;20.360;2024-01-11T03:17:47;102079.78;;;-5.32;78.77
74542;BME280;63015;45.378;20.360;2024-01-11T03:19:48;102082.09;;;-5.24;78.50
74542;BME280;63015;45.378;20.360;2024-01-11T03:21:48;102082.38;;;-5.21;78.62
74542;BME280;63015;45.378;20.360;2024-01-11T03:23:49;102083.06;;;-5.14;78.58
74542;BME280;63015;45.378;20.360;2024-01-11T03:25:49;102078.25;;;-5.10;78.39
74542;BME280;63015;45.378;20.360;2024-01-11T03:27:50;102082.94;;;-5.15;78.43
74542;BME280;63015;45.378;20.360;2024-01-11T03:29:50;102078.31;;;-5.19;78.40
74542;BME280;63015;45.378;20.360;2024-01-11T03:31:51;102071.31;;;-5.22;78.52
74542;BME280;63015;45.378;20.360;2024-01-11T03:33:51;102075.53;;;-5.22;78.35
74542;BME280;63015;45.378;20.360;2024-01-11T03:35:52;102073.25;;;-5.19;78.73
74542;BME280;63015;45.378;20.360;2024-01-11T03:37:52;102060.94;;;-5.15;78.76
74542;BME280;63015;45.378;20.360;2024-01-11T03:39:53;102065.41;;;-5.12;78.80
74542;BME280;63015;45.378;20.360;2024-01-11T03:41:53;102067.69;;;-5.15;78.77
74542;BME280;63015;45.378;20.360;2024-01-11T03:43:54;102061.06;;;-5.13;78.42
74542;BME280;63015;45.378;20.360;2024-01-11T03:45:55;102059.03;;;-5.17;78.46
74542;BME280;63015;45.378;20.360;2024-01-11T03:47:55;102060.41;;;-5.21;78.80
74542;BME280;63015;45.378;20.360;2024-01-11T03:49:56;102053.25;;;-5.25;78.83
74542;BME280;63015;45.378;20.360;2024-01-11T03:51:56;102048.72;;;-5.19;79.05
74542;BME280;63015;45.378;20.360;2024-01-11T03:53:57;102049.91;;;-5.15;78.99
74542;BME280;63015;45.378;20.360;2024-01-11T03:55:57;102044.19;;;-5.13;78.72
74542;BME280;63015;45.378;20.360;2024-01-11T03:57:58;102044.03;;;-5.14;78.93
74542;BME280;63015;45.378;20.360;2024-01-11T03:59:58;102044.44;;;-5.09;78.94
74542;BME280;63015;45.378;20.360;2024-01-11T04:01:59;102041.16;;;-5.08;78.83
74542;BME280;63015;45.378;20.360;2024-01-11T04:03:59;102041.50;;;-5.14;79.13
74542;BME280;63015;45.378;20.360;2024-01-11T04:06:00;102031.31;;;-5.14;79.19
74542;BME280;63015;45.378;20.360;2024-01-11T04:08:04;102031.63;;;-5.11;79.14
74542;BME280;63015;45.378;20.360;2024-01-11T04:10:05;102023.22;;;-5.10;79.19
74542;BME280;63015;45.378;20.360;2024-01-11T04:12:06;102033.91;;;-5.04;79.17
74542;BME280;63015;45.378;20.360;2024-01-11T04:14:07;102036.75;;;-5.01;79.20
74542;BME280;63015;45.378;20.360;2024-01-11T04:16:07;102024.28;;;-4.98;78.84
74542;BME280;63015;45.378;20.360;2024-01-11T04:18:08;102026.44;;;-5.02;78.94
74542;BME280;63015;45.378;20.360;2024-01-11T04:20:08;102019.69;;;-5.02;78.88
74542;BME280;63015;45.378;20.360;2024-01-11T04:22:09;102022.38;;;-5.00;78.64
74542;BME280;63015;45.378;20.360;2024-01-11T04:24:10;102023.13;;;-5.01;78.81
74542;BME280;63015;45.378;20.360;2024-01-11T04:26:10;102024.66;;;-5.03;78.61
74542;BME280;63015;45.378;20.360;2024-01-11T04:28:11;102025.00;;;-5.09;78.55
74542;BME280;63015;45.378;20.360;2024-01-11T04:30:11;102026.09;;;-5.16;78.81
74542;BME280;63015;45.378;20.360;2024-01-11T04:32:12;102031.47;;;-5.13;78.75
74542;BME280;63015;45.378;20.360;2024-01-11T04:34:12;102023.69;;;-5.14;78.53
74542;BME280;63015;45.378;20.360;2024-01-11T04:36:13;102025.97;;;-5.17;78.57
74542;BME280;63015;45.378;20.360;2024-01-11T04:38:13;102026.47;;;-5.21;78.42
74542;BME280;63015;45.378;20.360;2024-01-11T04:40:14;102023.50;;;-5.26;78.66
74542;BME280;63015;45.378;20.360;2024-01-11T04:42:14;102028.09;;;-5.22;78.71
74542;BME280;63015;45.378;20.360;2024-01-11T04:44:15;102032.56;;;-5.19;78.37
74542;BME280;63015;45.378;20.360;2024-01-11T04:46:22;102030.66;;;-5.22;78.11
74542;BME280;63015;45.378;20.360;2024-01-11T04:48:23;102032.78;;;-5.26;78.08
74542;BME280;63015;45.378;20.360;2024-01-11T04:50:24;102036.97;;;-5.27;78.04
74542;BME280;63015;45.378;20.360;2024-01-11T04:52:24;102042.66;;;-5.30;78.11
74542;BME280;63015;45.378;20.360;2024-01-11T04:54:25;102026.25;;;-5.33;77.92
74542;BME280;63015;45.378;20.360;2024-01-11T04:56:25;102031.94;;;-5.36;77.80
74542;BME280;63015;45.378;20.360;2024-01-11T04:58:26;102028.53;;;-5.36;78.03
74542;BME280;63015;45.378;20.360;2024-01-11T05:00:26;102022.56;;;-5.37;78.18
74542;BME280;63015;45.378;20.360;2024-01-11T05:02:26;102026.41;;;-5.32;78.44
74542;BME280;63015;45.378;20.360;2024-01-11T05:04:27;102022.41;;;-5.38;78.36
74542;BME280;63015;45.378;20.360;2024-01-11T05:06:28;102034.50;;;-5.36;78.37
74542;BME280;63015;45.378;20.360;2024-01-11T05:08:29;102037.47;;;-5.31;78.18
74542;BME280;63015;45.378;20.360;2024-01-11T05:10:30;102026.66;;;-5.29;78.40
74542;BME280;63015;45.378;20.360;2024-01-11T05:12:30;102029.22;;;-5.29;78.07
74542;BME280;63015;45.378;20.360;2024-01-11T05:14:31;102036.22;;;-5.26;78.05
74542;BME280;63015;45.378;20.360;2024-01-11T05:16:31;102038.88;;;-5.24;78.07
74542;BME280;63015;45.378;20.360;2024-01-11T05:18:32;102034.28;;;-5.29;77.65
74542;BME280;63015;45.378;20.360;2024-01-11T05:20:32;102029.78;;;-5.41;77.56
74542;BME280;63015;45.378;20.360;2024-01-11T05:22:33;102027.72;;;-5.46;77.68
74542;BME280;63015;45.378;20.360;2024-01-11T05:24:33;102024.63;;;-5.52;77.54
74542;BME280;63015;45.378;20.360;2024-01-11T05:26:34;102025.66;;;-5.50;77.73
74542;BME280;63015;45.378;20.360;2024-01-11T05:28:35;102025.66;;;-5.50;77.68
74542;BME280;63015;45.378;20.360;2024-01-11T05:30:36;102028.66;;;-5.54;77.48
74542;BME280;63015;45.378;20.360;2024-01-11T05:32:36;102028.81;;;-5.52;77.61
74542;BME280;63015;45.378;20.360;2024-01-11T05:34:37;102029.69;;;-5.52;77.69
74542;BME280;63015;45.378;20.360;2024-01-11T05:36:37;102020.28;;;-5.53;77.92
74542;BME280;63015;45.378;20.360;2024-01-11T05:38:38;102021.81;;;-5.55;77.88
74542;BME280;63015;45.378;20.360;2024-01-11T05:40:39;102024.06;;;-5.58;77.79
74542;BME280;63015;45.378;20.360;2024-01-11T05:42:40;102021.88;;;-5.64;77.60
74542;BME280;63015;45.378;20.360;2024-01-11T05:44:40;102025.22;;;-5.73;77.55
74542;BME280;63015;45.378;20.360;2024-01-11T05:46:41;102030.59;;;-5.70;77.79
74542;BME280;63015;45.378;20.360;2024-01-11T05:48:42;102027.44;;;-5.68;78.01
74542;BME280;63015;45.378;20.360;2024-01-11T05:50:43;102026.84;;;-5.65;77.71
74542;BME280;63015;45.378;20.360;2024-01-11T05:52:43;102031.56;;;-5.59;77.76
74542;BME280;63015;45.378;20.360;2024-01-11T05:54:44;102015.28;;;-5.62;77.81
74542;BME280;63015;45.378;20.360;2024-01-11T05:56:45;102023.38;;;-5.66;77.76
74542;BME280;63015;45.378;20.360;2024-01-11T05:58:45;102020.09;;;-5.65;77.43
74542;BME280;63015;45.378;20.360;2024-01-11T06:00:46;102017.25;;;-5.87;77.52
74542;BME280;63015;45.378;20.360;2024-01-11T06:02:46;102021.81;;;-5.74;77.57
74542;BME280;63015;45.378;20.360;2024-01-11T06:04:47;102017.41;;;-5.85;77.58
74542;BME280;63015;45.378;20.360;2024-01-11T06:06:49;102008.94;;;-5.95;77.71
74542;BME280;63015;45.378;20.360;2024-01-11T06:08:50;102021.50;;;-5.77;78.13
74542;BME280;63015;45.378;20.360;2024-01-11T06:10:51;102027.38;;;-5.78;77.89
74542;BME280;63015;45.378;20.360;2024-01-11T06:12:52;102025.84;;;-5.76;77.99
74542;BME280;63015;45.378;20.360;2024-01-11T06:14:52;102026.59;;;-5.77;77.94
74542;BME280;63015;45.378;20.360;2024-01-11T06:16:53;102032.28;;;-5.80;77.93
74542;BME280;63015;45.378;20.360;2024-01-11T06:18:53;102023.03;;;-5.79;77.97
74542;BME280;63015;45.378;20.360;2024-01-11T06:20:54;102027.50;;;-5.76;77.87
74542;BME280;63015;45.378;20.360;2024-01-11T06:22:54;102025.84;;;-5.76;77.82
74542;BME280;63015;45.378;20.360;2024-01-11T06:24:55;102028.13;;;-5.79;77.72
74542;BME280;63015;45.378;20.360;2024-01-11T06:26:55;102027.97;;;-5.81;77.79
74542;BME280;63015;45.378;20.360;2024-01-11T06:28:56;102036.34;;;-5.82;77.39
74542;BME280;63015;45.378;20.360;2024-01-11T06:30:56;102038.66;;;-5.93;77.54
74542;BME280;63015;45.378;20.360;2024-01-11T06:32:57;102037.56;;;-5.87;77.63
74542;BME280;63015;45.378;20.360;2024-01-11T06:34:57;102032.75;;;-5.84;77.95
74542;BME280;63015;45.378;20.360;2024-01-11T06:36:57;102036.13;;;-5.74;77.60
74542;BME280;63015;45.378;20.360;2024-01-11T06:38:58;102031.28;;;-5.82;77.32
74542;BME280;63015;45.378;20.360;2024-01-11T06:40:59;102042.22;;;-5.91;77.26
74542;BME280;63015;45.378;20.360;2024-01-11T06:43:00;102047.38;;;-6.00;77.32
74542;BME280;63015;45.378;20.360;2024-01-11T06:45:00;102055.16;;;-5.99;77.46
74542;BME280;63015;45.378;20.360;2024-01-11T06:47:01;102047.38;;;-6.00;77.54
74542;BME280;63015;45.378;20.360;2024-01-11T06:49:04;102042.91;;;-6.03;77.19
74542;BME280;63015;45.378;20.360;2024-01-11T06:51:04;102042.91;;;-6.03;77.42
74542;BME280;63015;45.378;20.360;2024-01-11T06:53:05;102040.25;;;-6.04;77.48
74542;BME280;63015;45.378;20.360;2024-01-11T06:55:06;102041.47;;;-6.09;77.39
74542;BME280;63015;45.378;20.360;2024-01-11T06:57:06;102039.53;;;-6.12;77.62
74542;BME280;63015;45.378;20.360;2024-01-11T06:59:07;102042.78;;;-6.04;77.68
74542;BME280;63015;45.378;20.360;2024-01-11T07:01:07;102031.59;;;-6.06;77.70
74542;BME280;63015;45.378;20.360;2024-01-11T07:03:11;102035.81;;;-5.97;77.40
74542;BME280;63015;45.378;20.360;2024-01-11T07:05:12;102036.88;;;-5.95;77.55
74542;BME280;63015;45.378;20.360;2024-01-11T07:07:12;102026.25;;;-5.90;77.21
74542;BME280;63015;45.378;20.360;2024-01-11T07:09:13;102023.53;;;-5.83;77.15
74542;BME280;63015;45.378;20.360;2024-01-11T07:11:14;102026.38;;;-5.89;77.00
74542;BME280;63015;45.378;20.360;2024-01-11T07:13:15;102021.44;;;-5.87;77.21
74542;BME280;63015;45.378;20.360;2024-01-11T07:15:17;102022.22;;;-5.88;77.32
74542;BME280;63015;45.378;20.360;2024-01-11T07:17:17;102022.91;;;-5.81;77.02
74542;BME280;63015;45.378;20.360;2024-01-11T07:19:18;102017.22;;;-5.78;77.05
74542;BME280;63015;45.378;20.360;2024-01-11T07:21:22;102017.53;;;-5.84;76.70
74542;BME280;63015;45.378;20.360;2024-01-11T07:23:29;102020.19;;;-5.82;77.03
74542;BME280;63015;45.378;20.360;2024-01-11T07:25:30;102017.81;;;-5.81;77.04
74542;BME280;63015;45.378;20.360;2024-01-11T07:27:30;102030.03;;;-5.76;76.81
74542;BME280;63015;45.378;20.360;2024-01-11T07:29:31;102030.03;;;-5.76;77.03
74542;BME280;63015;45.378;20.360;2024-01-11T07:31:32;102027.16;;;-5.71;77.13
74542;BME280;63015;45.378;20.360;2024-01-11T07:33:32;102025.03;;;-5.66;77.22
74542;BME280;63015;45.378;20.360;2024-01-11T07:35:33;102028.50;;;-5.74;76.72
74542;BME280;63015;45.378;20.360;2024-01-11T07:37:33;102041.06;;;-5.76;76.58
74542;BME280;63015;45.378;20.360;2024-01-11T07:39:34;102036.63;;;-5.79;76.87
74542;BME280;63015;45.378;20.360;2024-01-11T07:41:35;102037.03;;;-5.74;76.78
74542;BME280;63015;45.378;20.360;2024-01-11T07:43:36;102035.31;;;-5.65;76.98
74542;BME280;63015;45.378;20.360;2024-01-11T07:45:36;102026.97;;;-5.64;76.71
74542;BME280;63015;45.378;20.360;2024-01-11T07:47:38;102033.97;;;-5.61;76.44
74542;BME280;63015;45.378;20.360;2024-01-11T07:49:39;102038.00;;;-5.63;76.62
74542;BME280;63015;45.378;20.360;2024-01-11T07:51:39;102029.16;;;-5.58;76.65
74542;BME280;63015;45.378;20.360;2024-01-11T07:53:40;102031.97;;;-5.55;76.37
74542;BME280;63015;45.378;20.360;2024-01-11T07:55:41;102025.25;;;-5.54;76.70
74542;BME280;63015;45.378;20.360;2024-01-11T07:57:41;102026.13;;;-5.54;76.48
74542;BME280;63015;45.378;20.360;2024-01-11T07:59:42;102023.88;;;-5.51;76.49
74542;BME280;63015;45.378;20.360;2024-01-11T08:01:43;102021.19;;;-5.52;76.41
74542;BME280;63015;45.378;20.360;2024-01-11T08:03:43;102006.97;;;-5.50;76.51
74542;BME280;63015;45.378;20.360;2024-01-11T08:05:47;102012.47;;;-5.46;76.52
74542;BME280;63015;45.378;20.360;2024-01-11T08:07:50;102014.41;;;-5.43;76.48
74542;BME280;63015;45.378;20.360;2024-01-11T08:09:51;102016.31;;;-5.40;76.45
74542;BME280;63015;45.378;20.360;2024-01-11T08:11:51;102017.63;;;-5.35;76.37
74542;BME280;63015;45.378;20.360;2024-01-11T08:13:55;102013.97;;;-5.29;76.23
74542;BME280;63015;45.378;20.360;2024-01-11T08:15:55;102000.63;;;-5.26;76.14
74542;BME280;63015;45.378;20.360;2024-01-11T08:17:56;101998.50;;;-5.21;76.23
74542;BME280;63015;45.378;20.360;2024-01-11T08:19:56;102003.22;;;-5.16;76.14
74542;BME280;63015;45.378;20.360;2024-01-11T08:21:57;101991.16;;;-5.18;75.98
74542;BME280;63015;45.378;20.360;2024-01-11T08:23:57;102000.06;;;-5.13;75.73
74542;BME280;63015;45.378;20.360;2024-01-11T08:25:58;102003.03;;;-5.08;76.03
74542;BME280;63015;45.378;20.360;2024-01-11T08:27:58;101997.53;;;-5.13;75.62
74542;BME280;63015;45.378;20.360;2024-01-11T08:29:59;102006.44;;;-5.08;75.90
74542;BME280;63015;45.378;20.360;2024-01-11T08:32:01;102007.63;;;-5.04;76.04
74542;BME280;63015;45.378;20.360;2024-01-11T08:34:04;102014.50;;;-5.03;76.17
74542;BME280;63015;45.378;20.360;2024-01-11T08:36:05;102005.13;;;-4.94;76.16
74542;BME280;63015;45.378;20.360;2024-01-11T08:38:07;102007.03;;;-4.91;75.81
74542;BME280;63015;45.378;20.360;2024-01-11T08:40:07;102012.63;;;-4.96;75.76
74542;BME280;63015;45.378;20.360;2024-01-11T08:42:09;102017.41;;;-4.99;75.82
74542;BME280;63015;45.378;20.360;2024-01-11T08:44:10;102010.19;;;-4.94;76.15
74542;BME280;63015;45.378;20.360;2024-01-11T08:46:10;102009.38;;;-4.84;75.96
74542;BME280;63015;45.378;20.360;2024-01-11T08:48:11;102005.38;;;-4.91;76.05
74542;BME280;63015;45.378;20.360;2024-01-11T08:50:15;102010.50;;;-4.81;76.12
74542;BME280;63015;45.378;20.360;2024-01-11T08:52:16;102007.19;;;-4.80;75.96
74542;BME280;63015;45.378;20.360;2024-01-11T08:54:16;102000.34;;;-4.70;76.12
74542;BME280;63015;45.378;20.360;2024-01-11T08:56:17;102000.88;;;-4.64;75.89
74542;BME280;63015;45.378;20.360;2024-01-11T08:58:17;101997.59;;;-4.53;76.07
74542;BME280;63015;45.378;20.360;2024-01-11T09:00:18;101999.00;;;-4.46;75.77
74542;BME280;63015;45.378;20.360;2024-01-11T09:02:18;102006.31;;;-4.40;75.91
74542;BME280;63015;45.378;20.360;2024-01-11T09:04:19;102001.59;;;-4.36;75.54
74542;BME280;63015;45.378;20.360;2024-01-11T09:06:19;101990.66;;;-4.35;75.55
74542;BME280;63015;45.378;20.360;2024-01-11T09:08:20;101998.66;;;-4.40;75.33
74542;BME280;63015;45.378;20.360;2024-01-11T09:10:20;101998.25;;;-4.55;75.30
74542;BME280;63015;45.378;20.360;2024-01-11T09:12:21;101997.47;;;-4.54;75.56
74542;BME280;63015;45.378;20.360;2024-01-11T09:14:22;101991.78;;;-4.41;75.91
74542;BME280;63015;45.378;20.360;2024-01-11T09:16:22;101984.28;;;-4.30;75.82
74542;BME280;63015;45.378;20.360;2024-01-11T09:18:23;101986.06;;;-4.28;75.57
74542;BME280;63015;45.378;20.360;2024-01-11T09:20:23;101978.31;;;-4.20;75.62
74542;BME280;63015;45.378;20.360;2024-01-11T09:22:23;101970.16;;;-4.16;75.36
74542;BME280;63015;45.378;20.360;2024-01-11T09:24:24;101973.47;;;-4.06;75.47
74542;BME280;63015;45.378;20.360;2024-01-11T09:26:25;101959.22;;;-4.04;75.25
74542;BME280;63015;45.378;20.360;2024-01-11T09:28:26;101971.44;;;-4.00;75.54
74542;BME280;63015;45.378;20.360;2024-01-11T09:30:26;101955.88;;;-3.93;75.40
74542;BME280;63015;45.378;20.360;2024-01-11T09:32:27;101956.41;;;-3.87;75.53
74542;BME280;63015;45.378;20.360;2024-01-11T09:34:27;101946.97;;;-3.88;75.16
74542;BME280;63015;45.378;20.360;2024-01-11T09:36:28;101948.13;;;-3.84;74.62
74542;BME280;63015;45.378;20.360;2024-01-11T09:38:28;101947.47;;;-3.71;74.91
74542;BME280;63015;45.378;20.360;2024-01-11T09:40:29;101932.66;;;-3.65;74.87
74542;BME280;63015;45.378;20.360;2024-01-11T09:42:29;101933.41;;;-3.56;74.91
74542;BME280;63015;45.378;20.360;2024-01-11T09:44:30;101937.59;;;-3.46;74.55
74542;BME280;63015;45.378;20.360;2024-01-11T09:46:32;101930.81;;;-3.45;74.29
74542;BME280;63015;45.378;20.360;2024-01-11T09:48:34;101932.34;;;-3.37;74.44
74542;BME280;63015;45.378;20.360;2024-01-11T09:50:35;101931.50;;;-3.58;73.64
74542;BME280;63015;45.378;20.360;2024-01-11T09:52:37;101928.44;;;-3.54;74.28
74542;BME280;63015;45.378;20.360;2024-01-11T09:54:39;101925.19;;;-3.41;74.64
74542;BME280;63015;45.378;20.360;2024-01-11T09:56:42;101931.81;;;-3.33;74.49
74542;BME280;63015;45.378;20.360;2024-01-11T09:58:46;101920.22;;;-3.29;74.17
74542;BME280;63015;45.378;20.360;2024-01-11T10:00:54;101915.72;;;-3.22;74.45
74542;BME280;63015;45.378;20.360;2024-01-11T10:03:25;101912.84;;;-3.15;74.21
74542;BME280;63015;45.378;20.360;2024-01-11T10:05:27;101921.28;;;-3.16;73.82
74542;BME280;63015;45.378;20.360;2024-01-11T10:07:30;101905.47;;;-3.11;74.24
74542;BME280;63015;45.378;20.360;2024-01-11T10:09:33;101903.03;;;-3.10;74.39
74542;BME280;63015;45.378;20.360;2024-01-11T10:12:04;101906.72;;;-3.06;74.42
74542;BME280;63015;45.378;20.360;2024-01-11T10:14:05;101909.28;;;-3.06;73.93
74542;BME280;63015;45.378;20.360;2024-01-11T10:16:10;101906.81;;;-3.05;73.87
74542;BME280;63015;45.378;20.360;2024-01-11T10:18:13;101900.00;;;-2.94;74.02
74542;BME280;63015;45.378;20.360;2024-01-11T10:20:14;101894.19;;;-2.81;74.00
74542;BME280;63015;45.378;20.360;2024-01-11T10:22:15;101889.97;;;-2.81;73.63
74542;BME280;63015;45.378;20.360;2024-01-11T10:24:20;101890.78;;;-2.70;73.68